Time;durP1;ratioP1;P1;durP2;ratioP2;P2;SDS_P1;SDS_P2;PMS_P1;PMS_P2;Temp;Humidity;BMP_temperature;BMP_pressure;BME280_temperature;BME280_humidity;BME280_pressure;Samples;Min_cycle;Max_cycle;Signal;HPM_P1;HPM_P2
2021/12/10 00:00:44;;;;;;;5.72;3.35;;;3.90;99.90;;;;;;5074370;28;20208;-59
2021/12/10 00:03:16;;;;;;;5.97;3.28;;;3.90;99.90;;;;;;5069899;28;20222;-60
2021/12/10 00:05:50;;;;;;;10.00;4.28;;;3.90;99.90;;;;;;5054239;28;20793;-60
2021/12/10 00:08:19;;;;;;;11.40;4.75;;;3.90;99.90;;;;;;5054599;28;20255;-61
2021/12/10 00:10:54;;;;;;;4.40;3.00;;;3.90;99.90;;;;;;5056712;28;20247;-60
2021/12/10 00:13:23;;;;;;;4.72;2.67;;;3.90;99.90;;;;;;5065182;28;20768;-59
2021/12/10 00:15:54;;;;;;;7.15;3.28;;;3.70;99.90;;;;;;5054179;28;20601;-61
2021/12/10 00:18:25;;;;;;;5.13;4.10;;;3.60;99.90;;;;;;5069488;28;20243;-61
2021/12/10 00:20:58;;;;;;;4.93;3.10;;;3.60;99.90;;;;;;5074181;28;20184;-59
2021/12/10 00:23:29;;;;;;;6.93;3.25;;;3.60;99.90;;;;;;5057160;28;20239;-59
2021/12/10 00:25:59;;;;;;;8.70;3.53;;;3.50;99.90;;;;;;5056573;28;20237;-61
2021/12/10 00:28:30;;;;;;;5.38;2.88;;;3.50;99.90;;;;;;5057705;28;20211;-61
2021/12/10 00:31:13;;;;;;;9.00;3.50;;;3.40;99.90;;;;;;5073306;28;20661;-59
2021/12/10 00:33:46;;;;;;;3.95;2.97;;;3.40;99.90;;;;;;5069070;28;20228;-59
2021/12/10 00:36:16;;;;;;;8.40;3.53;;;3.40;99.90;;;;;;5057181;28;20188;-61
2021/12/10 00:38:45;;;;;;;9.30;4.43;;;3.30;99.90;;;;;;5071485;28;20302;-60
2021/12/10 00:41:13;;;;;;;5.88;3.80;;;3.30;99.90;;;;;;5072302;28;20184;-59
2021/12/10 00:43:42;;;;;;;6.45;3.13;;;3.30;99.90;;;;;;5058436;28;20223;-60
2021/12/10 00:46:10;;;;;;;4.22;2.70;;;3.30;99.90;;;;;;5072251;28;20237;-60
2021/12/10 00:48:39;;;;;;;9.77;3.92;;;3.30;99.90;;;;;;5072671;28;20223;-60
2021/12/10 00:51:11;;;;;;;7.45;4.35;;;3.20;99.90;;;;;;5072202;28;20281;-59
2021/12/10 00:53:42;;;;;;;10.10;2.75;;;3.20;99.90;;;;;;5061272;28;20207;-60
2021/12/10 00:56:11;;;;;;;3.95;3.28;;;3.20;99.90;;;;;;5070430;28;20196;-60
2021/12/10 00:58:41;;;;;;;5.75;4.38;;;3.20;99.90;;;;;;5082174;28;20717;-61
2021/12/10 01:01:13;;;;;;;5.10;3.30;;;3.20;99.90;;;;;;5053324;28;20631;-59
2021/12/10 01:03:45;;;;;;;5.43;3.35;;;3.20;99.90;;;;;;5061455;28;20223;-60
2021/12/10 01:06:15;;;;;;;4.90;3.88;;;3.20;99.90;;;;;;5072680;28;20238;-60
2021/12/10 01:08:49;;;;;;;5.57;4.45;;;3.20;99.90;;;;;;5051930;28;20216;-61
2021/12/10 01:11:21;;;;;;;6.03;3.30;;;3.20;99.90;;;;;;5053920;28;20621;-59
2021/12/10 01:13:53;;;;;;;5.60;3.50;;;3.20;99.90;;;;;;5053134;28;20762;-60
2021/12/10 01:25:04;;;;;;;6.03;3.60;;;3.50;99.90;;;;;;5052316;28;20230;-61
2021/12/10 01:27:35;;;;;;;6.55;2.33;;;3.60;99.90;;;;;;5070533;28;20253;-61
2021/12/10 01:30:13;;;;;;;5.32;2.53;;;3.60;99.90;;;;;;5052837;28;20220;-59
2021/12/10 01:32:45;;;;;;;7.32;3.88;;;3.70;99.90;;;;;;5053290;28;20219;-60
2021/12/10 01:35:17;;;;;;;8.48;2.75;;;3.60;99.90;;;;;;5052854;28;20602;-61
2021/12/10 01:37:46;;;;;;;9.55;3.90;;;3.70;99.90;;;;;;5071578;28;20273;-61
2021/12/10 01:40:19;;;;;;;6.05;4.18;;;3.70;99.90;;;;;;5067342;28;20234;-60
2021/12/10 01:42:50;;;;;;;5.00;4.35;;;3.70;99.90;;;;;;5051813;28;20698;-60
2021/12/10 01:45:22;;;;;;;7.65;4.25;;;3.70;99.90;;;;;;5056131;28;20203;-61
2021/12/10 01:47:56;;;;;;;7.15;4.15;;;3.70;99.90;;;;;;5052071;28;20761;-61
2021/12/10 01:50:27;;;;;;;3.67;3.00;;;3.70;99.90;;;;;;5066191;28;20628;-60
2021/12/10 01:52:58;;;;;;;10.68;4.18;;;3.70;99.90;;;;;;5051992;28;20714;-60
2021/12/10 01:55:30;;;;;;;4.57;4.05;;;3.70;99.90;;;;;;5052101;28;20200;-61
2021/12/10 01:58:00;;;;;;;7.00;3.60;;;3.70;99.90;;;;;;5052527;28;20312;-61
2021/12/10 02:00:34;;;;;;;3.58;2.63;;;3.60;99.90;;;;;;5059693;28;20578;-60
2021/12/10 02:03:03;;;;;;;3.35;2.50;;;3.60;99.90;;;;;;5068043;28;20219;-59
2021/12/10 02:05:31;;;;;;;7.43;1.50;;;3.60;99.90;;;;;;5071367;28;20546;-60
2021/12/10 02:08:00;;;;;;;5.50;2.97;;;3.60;99.90;;;;;;5069559;28;20589;-61
2021/12/10 02:10:30;;;;;;;3.65;1.77;;;3.60;99.90;;;;;;5052322;28;20204;-60
2021/12/10 02:12:59;;;;;;;2.30;1.80;;;3.60;99.90;;;;;;5051358;28;20224;-59
2021/12/10 02:15:29;;;;;;;7.72;3.70;;;3.50;99.90;;;;;;5057868;28;20650;-60
2021/12/10 02:17:59;;;;;;;5.80;1.80;;;3.50;99.90;;;;;;5071160;28;20281;-61
2021/12/10 02:20:32;;;;;;;7.88;2.40;;;3.50;99.90;;;;;;5069184;28;20739;-59
2021/12/10 02:23:02;;;;;;;8.20;1.77;;;3.50;99.90;;;;;;5063650;28;20247;-59
2021/12/10 02:25:32;;;;;;;5.53;1.90;;;3.50;99.90;;;;;;5051719;28;20646;-61
2021/12/10 02:28:00;;;;;;;5.55;2.17;;;3.60;99.90;;;;;;5051292;28;20283;-61
2021/12/10 02:30:30;;;;;;;1.98;1.65;;;3.60;99.90;;;;;;5058115;28;20628;-59
2021/12/10 02:32:59;;;;;;;6.45;1.98;;;3.50;99.90;;;;;;5071306;28;20224;-60
2021/12/10 02:35:28;;;;;;;2.83;1.40;;;3.50;99.90;;;;;;5069953;28;20531;-61
2021/12/10 02:37:57;;;;;;;4.43;2.08;;;3.50;99.90;;;;;;5054611;28;20250;-61
2021/12/10 02:40:29;;;;;;;10.07;1.95;;;3.50;99.90;;;;;;5051549;28;20222;-60
2021/12/10 02:43:01;;;;;;;5.28;1.55;;;3.50;99.90;;;;;;5051025;28;20224;-60
2021/12/10 02:45:30;;;;;;;5.50;2.20;;;3.40;99.90;;;;;;5070664;28;20616;-61
2021/12/10 02:47:58;;;;;;;5.13;1.80;;;3.50;99.90;;;;;;5069439;28;20661;-61
2021/12/10 02:50:29;;;;;;;7.20;2.35;;;3.50;99.90;;;;;;5062347;28;20217;-59
2021/12/10 02:52:58;;;;;;;7.65;2.53;;;3.50;99.90;;;;;;5069619;28;20231;-59
2021/12/10 02:55:30;;;;;;;4.60;3.05;;;3.50;99.90;;;;;;5058574;28;20201;-62
2021/12/10 02:58:05;;;;;;;6.60;1.65;;;3.50;99.90;;;;;;5050662;28;20267;-62
2021/12/10 03:00:36;;;;;;;3.58;1.70;;;3.50;99.90;;;;;;5052983;28;20620;-60
2021/12/10 03:03:05;;;;;;;7.95;1.50;;;3.50;99.90;;;;;;5052233;28;20228;-59
2021/12/10 03:05:33;;;;;;;3.40;1.77;;;3.50;99.90;;;;;;5071190;28;20199;-61
2021/12/10 03:08:01;;;;;;;4.80;1.67;;;3.50;99.90;;;;;;5065546;28;20224;-61
2021/12/10 03:10:33;;;;;;;5.45;1.70;;;3.40;99.90;;;;;;5066776;28;20555;-60
2021/12/10 03:13:02;;;;;;;3.40;1.80;;;3.40;99.90;;;;;;5050912;28;20243;-60
2021/12/10 03:15:32;;;;;;;6.32;1.88;;;3.40;99.90;;;;;;5051148;28;20275;-61
2021/12/10 03:18:01;;;;;;;7.10;2.30;;;3.40;99.90;;;;;;5050767;28;20216;-61
2021/12/10 03:20:30;;;;;;;2.95;1.98;;;3.40;99.90;;;;;;5067259;28;20302;-60
2021/12/10 03:23:00;;;;;;;7.55;1.90;;;3.40;99.90;;;;;;5057613;28;20216;-60
2021/12/10 03:25:29;;;;;;;7.95;1.70;;;3.40;99.90;;;;;;5066204;28;20192;-62
2021/12/10 03:27:58;;;;;;;5.63;1.90;;;3.40;99.90;;;;;;5053764;28;20281;-61
2021/12/10 03:30:30;;;;;;;4.88;1.65;;;3.40;99.90;;;;;;5067155;28;20277;-60
2021/12/10 03:32:58;;;;;;;4.00;1.73;;;3.50;99.90;;;;;;5059028;28;20232;-59
2021/12/10 03:35:30;;;;;;;8.82;2.08;;;3.50;99.90;;;;;;5054478;28;20226;-62
2021/12/10 03:38:01;;;;;;;6.40;1.50;;;3.60;99.90;;;;;;5057580;28;20593;-61
2021/12/10 03:40:29;;;;;;;3.67;2.03;;;3.60;99.90;;;;;;5071885;28;20239;-61
2021/12/10 03:43:01;;;;;;;5.97;2.58;;;3.60;99.90;;;;;;5062225;28;20259;-60
2021/12/10 03:45:33;;;;;;;4.82;1.58;;;3.70;99.90;;;;;;5054341;28;20196;-62
2021/12/10 03:48:07;;;;;;;3.38;1.73;;;3.70;99.90;;;;;;5067449;28;20227;-60
2021/12/10 03:50:35;;;;;;;5.13;1.85;;;3.70;99.90;;;;;;5057155;28;20436;-60
2021/12/10 03:53:04;;;;;;;4.60;1.92;;;3.70;99.90;;;;;;5070161;28;20558;-59
2021/12/10 03:55:32;;;;;;;3.90;1.80;;;3.70;99.90;;;;;;5065801;28;20268;-61
2021/12/10 03:58:04;;;;;;;5.45;2.30;;;3.80;99.90;;;;;;5054607;28;20657;-61
2021/12/10 04:00:37;;;;;;;5.80;1.42;;;3.80;99.90;;;;;;5054693;28;20715;-61
2021/12/10 04:03:11;;;;;;;6.05;1.70;;;3.80;99.90;;;;;;5054289;28;20294;-59
2021/12/10 04:05:41;;;;;;;6.10;1.88;;;3.80;99.90;;;;;;5071113;28;20181;-60
2021/12/10 04:08:09;;;;;;;4.70;1.85;;;3.80;99.90;;;;;;5068052;28;20278;-61
2021/12/10 04:10:38;;;;;;;5.85;2.10;;;3.70;99.90;;;;;;5070965;28;20701;-60
2021/12/10 04:13:09;;;;;;;6.78;3.40;;;3.70;99.90;;;;;;5071167;28;20220;-60
2021/12/10 04:15:38;;;;;;;5.22;1.83;;;3.80;99.90;;;;;;5054998;28;20206;-60
2021/12/10 04:18:08;;;;;;;5.40;1.70;;;3.70;99.90;;;;;;5054685;28;20686;-60
2021/12/10 04:20:37;;;;;;;3.97;2.10;;;3.70;99.90;;;;;;5067519;28;20207;-61
2021/12/10 04:23:08;;;;;;;4.75;2.13;;;3.70;99.90;;;;;;5073402;28;20216;-60
2021/12/10 04:25:37;;;;;;;8.07;2.92;;;3.60;99.90;;;;;;5069611;28;20634;-60
2021/12/10 04:28:09;;;;;;;3.65;1.60;;;3.60;99.90;;;;;;5059626;28;20273;-61
2021/12/10 04:30:40;;;;;;;3.90;2.13;;;3.70;99.90;;;;;;5070283;28;20204;-61
2021/12/10 04:33:10;;;;;;;5.32;1.30;;;3.60;99.90;;;;;;5065053;28;20228;-59
2021/12/10 04:35:38;;;;;;;3.13;1.58;;;3.60;99.90;;;;;;5059217;28;20241;-59
2021/12/10 04:38:07;;;;;;;4.38;1.60;;;3.60;99.90;;;;;;5072161;28;20224;-61
2021/12/10 04:40:35;;;;;;;5.10;1.73;;;3.70;99.90;;;;;;5072690;28;20573;-62
2021/12/10 04:43:03;;;;;;;3.05;1.45;;;3.70;99.90;;;;;;5070870;28;20220;-60
2021/12/10 04:45:33;;;;;;;6.22;1.80;;;3.60;99.90;;;;;;5057340;28;20254;-60
2021/12/10 04:48:01;;;;;;;3.47;1.55;;;3.60;99.90;;;;;;5072743;28;20224;-61
2021/12/10 04:50:30;;;;;;;4.30;1.67;;;3.50;99.90;;;;;;5062570;28;20252;-61
2021/12/10 04:52:59;;;;;;;5.38;1.70;;;3.60;99.90;;;;;;5065423;28;20226;-60
2021/12/10 04:55:28;;;;;;;10.30;2.30;;;3.50;99.90;;;;;;5072492;28;20192;-60
2021/12/10 04:57:56;;;;;;;3.97;1.42;;;3.50;99.90;;;;;;5065032;28;20224;-61
2021/12/10 05:00:27;;;;;;;4.95;1.40;;;3.50;99.90;;;;;;5071080;28;20216;-62
2021/12/10 05:03:00;;;;;;;9.25;2.72;;;3.50;99.90;;;;;;5070944;28;20257;-60
2021/12/10 05:05:29;;;;;;;3.95;1.70;;;3.50;99.90;;;;;;5073163;28;20633;-60
2021/12/10 05:07:57;;;;;;;4.78;2.67;;;3.50;99.90;;;;;;5068724;28;20223;-61
2021/12/10 05:10:25;;;;;;;2.55;1.73;;;3.40;99.90;;;;;;5072458;28;20238;-60
2021/12/10 05:12:54;;;;;;;5.22;1.90;;;3.40;99.90;;;;;;5070345;28;20219;-60
2021/12/10 05:15:25;;;;;;;10.27;2.20;;;3.40;99.90;;;;;;5072036;28;20212;-60
2021/12/10 05:17:54;;;;;;;3.10;1.98;;;3.40;99.90;;;;;;5071725;28;20416;-61
2021/12/10 05:20:27;;;;;;;7.13;2.13;;;3.30;99.90;;;;;;5055170;28;20278;-60
2021/12/10 05:22:55;;;;;;;5.03;2.15;;;3.30;99.90;;;;;;5056191;28;20235;-60
2021/12/10 05:25:26;;;;;;;5.63;2.50;;;3.30;99.90;;;;;;5072539;28;20230;-60
2021/12/10 05:27:55;;;;;;;4.88;1.95;;;3.30;99.90;;;;;;5069686;28;20658;-61
2021/12/10 05:30:27;;;;;;;3.85;1.88;;;3.30;99.90;;;;;;5072210;28;20732;-61
2021/12/10 05:32:56;;;;;;;5.18;1.65;;;3.30;99.90;;;;;;5060786;28;20244;-60
2021/12/10 05:35:25;;;;;;;3.40;2.38;;;3.30;99.90;;;;;;5072273;28;20216;-59
2021/12/10 05:37:53;;;;;;;5.43;2.50;;;3.30;99.90;;;;;;5066004;28;20586;-62
2021/12/10 05:40:23;;;;;;;8.20;2.33;;;3.30;99.90;;;;;;5072170;28;20208;-62
2021/12/10 05:42:51;;;;;;;4.85;2.65;;;3.30;99.90;;;;;;5070041;28;20277;-60
2021/12/10 05:45:22;;;;;;;8.52;2.65;;;3.30;99.90;;;;;;5071864;28;20265;-60
2021/12/10 05:47:50;;;;;;;5.40;1.83;;;3.30;99.90;;;;;;5062767;28;20228;-61
2021/12/10 05:50:22;;;;;;;6.35;2.50;;;3.30;99.90;;;;;;5052048;28;20270;-60
2021/12/10 05:52:51;;;;;;;5.30;1.92;;;3.30;99.90;;;;;;5057122;28;20306;-60
2021/12/10 05:55:20;;;;;;;3.75;2.60;;;3.30;99.90;;;;;;5071484;28;20236;-60
2021/12/10 05:57:48;;;;;;;8.77;2.70;;;3.30;99.90;;;;;;5062585;28;20274;-61
2021/12/10 06:00:20;;;;;;;9.65;2.33;;;3.30;99.90;;;;;;5070052;28;20737;-61
2021/12/10 06:02:49;;;;;;;5.25;2.30;;;3.30;99.90;;;;;;5065724;28;20216;-60
2021/12/10 06:05:17;;;;;;;5.90;2.60;;;3.30;99.90;;;;;;5051697;28;20184;-59
2021/12/10 06:07:46;;;;;;;6.50;1.85;;;3.40;99.90;;;;;;5059025;28;20219;-61
2021/12/10 06:10:17;;;;;;;9.10;2.50;;;3.40;99.90;;;;;;5072392;28;20200;-61
2021/12/10 06:12:47;;;;;;;9.50;2.10;;;3.40;99.90;;;;;;5063399;28;20270;-61
2021/12/10 06:15:16;;;;;;;7.25;2.17;;;3.40;99.90;;;;;;5051802;28;20267;-59
2021/12/10 06:17:45;;;;;;;5.78;2.28;;;3.40;99.90;;;;;;5059885;28;20640;-60
2021/12/10 06:20:18;;;;;;;5.28;2.30;;;3.40;99.90;;;;;;5070348;28;20241;-60
2021/12/10 06:22:46;;;;;;;4.55;1.75;;;3.40;99.90;;;;;;5057473;28;20224;-61
2021/12/10 06:25:16;;;;;;;7.57;2.13;;;3.50;99.90;;;;;;5052815;28;20332;-61
2021/12/10 06:27:45;;;;;;;4.13;1.95;;;3.50;99.90;;;;;;5050812;28;20266;-60
2021/12/10 06:30:15;;;;;;;5.30;1.70;;;3.50;99.90;;;;;;5069929;28;20269;-62
2021/12/10 06:32:44;;;;;;;6.50;2.13;;;3.50;99.90;;;;;;5061871;28;20224;-60
2021/12/10 06:35:14;;;;;;;3.15;1.60;;;3.50;99.90;;;;;;5086788;28;20207;-60
2021/12/10 06:37:44;;;;;;;3.42;2.05;;;3.50;99.90;;;;;;5070543;28;20243;-61
2021/12/10 06:40:16;;;;;;;4.30;1.80;;;3.50;99.90;;;;;;5070693;28;20257;-62
2021/12/10 06:42:45;;;;;;;9.50;2.20;;;3.50;99.90;;;;;;5062041;28;20212;-60
2021/12/10 06:45:15;;;;;;;6.60;2.20;;;3.50;99.90;;;;;;5051834;28;20307;-59
2021/12/10 06:47:47;;;;;;;5.97;1.85;;;3.50;99.90;;;;;;5051481;28;20220;-61
2021/12/10 06:50:17;;;;;;;9.23;3.97;;;3.50;99.90;;;;;;5065853;28;20215;-60
2021/12/10 06:52:46;;;;;;;5.10;2.55;;;3.60;99.90;;;;;;5060253;28;20627;-60
2021/12/10 06:55:16;;;;;;;5.05;2.33;;;3.50;99.90;;;;;;5069221;28;20543;-59
2021/12/10 06:57:44;;;;;;;5.28;2.45;;;3.50;99.90;;;;;;5062653;28;20271;-61
2021/12/10 07:00:16;;;;;;;5.30;3.75;;;3.50;99.90;;;;;;5070443;28;20237;-60
2021/12/10 07:02:46;;;;;;;9.55;3.22;;;3.50;99.90;;;;;;5070175;28;20223;-59
2021/12/10 07:05:15;;;;;;;7.63;3.97;;;3.50;99.90;;;;;;5069296;28;20654;-60
2021/12/10 07:07:44;;;;;;;8.57;4.07;;;3.50;99.90;;;;;;5057749;28;20694;-62
2021/12/10 07:10:14;;;;;;;4.53;3.40;;;3.50;99.90;;;;;;5055722;28;20211;-60
2021/12/10 07:12:44;;;;;;;5.20;3.17;;;3.50;99.90;;;;;;5055803;28;20216;-60
2021/12/10 07:15:15;;;;;;;5.88;3.47;;;3.40;99.90;;;;;;5055491;28;20779;-60
2021/12/10 07:17:49;;;;;;;5.65;4.10;;;3.40;99.90;;;;;;5054512;28;20274;-60
2021/12/10 07:20:20;;;;;;;6.07;3.47;;;3.40;99.90;;;;;;5061539;28;20208;-62
2021/12/10 07:22:49;;;;;;;5.63;2.97;;;3.40;99.90;;;;;;5068275;28;20212;-60
2021/12/10 07:25:20;;;;;;;5.07;2.83;;;3.40;99.90;;;;;;5071021;28;20180;-60
2021/12/10 07:27:50;;;;;;;13.38;3.75;;;3.40;99.90;;;;;;5063928;28;20223;-59
2021/12/10 07:30:23;;;;;;;5.05;3.00;;;3.40;99.90;;;;;;5074825;28;20239;-60
2021/12/10 07:32:52;;;;;;;9.35;2.50;;;3.40;99.90;;;;;;5074299;28;20230;-60
2021/12/10 07:35:20;;;;;;;7.70;3.42;;;3.40;99.90;;;;;;5074776;28;20208;-60
2021/12/10 07:37:49;;;;;;;9.52;3.05;;;3.40;99.90;;;;;;5073925;28;20231;-60
2021/12/10 07:40:19;;;;;;;3.55;2.53;;;3.40;99.90;;;;;;5058476;28;20266;-60
2021/12/10 07:42:49;;;;;;;7.25;3.08;;;3.40;99.90;;;;;;5070446;28;20219;-60
2021/12/10 07:45:19;;;;;;;4.07;2.70;;;3.40;99.90;;;;;;5054851;28;20192;-60
2021/12/10 07:47:51;;;;;;;6.00;3.00;;;3.40;99.90;;;;;;5072292;28;20219;-60
2021/12/10 07:50:23;;;;;;;8.73;3.25;;;3.40;99.90;;;;;;5061830;28;20666;-60
2021/12/10 07:52:54;;;;;;;4.32;2.67;;;3.40;99.90;;;;;;5054196;28;20224;-61
2021/12/10 07:55:25;;;;;;;6.85;3.70;;;3.40;99.90;;;;;;5078714;28;20212;-59
2021/12/10 07:57:56;;;;;;;6.05;3.60;;;3.40;99.90;;;;;;5040147;28;20653;-59
2021/12/10 08:00:28;;;;;;;10.13;3.40;;;3.40;99.90;;;;;;5062563;28;20273;-60
2021/12/10 08:02:57;;;;;;;8.27;2.78;;;3.50;99.90;;;;;;5073537;28;20593;-60
2021/12/10 08:05:26;;;;;;;7.97;2.80;;;3.50;99.90;;;;;;5073974;28;20711;-60
2021/12/10 08:08:00;;;;;;;8.95;3.60;;;3.50;99.90;;;;;;5062597;28;20699;-60
2021/12/10 08:10:29;;;;;;;5.32;2.95;;;3.50;99.90;;;;;;5074076;28;20204;-61
2021/12/10 08:12:59;;;;;;;4.75;2.90;;;3.50;99.90;;;;;;5069993;28;20636;-60
2021/12/10 08:15:27;;;;;;;5.38;2.55;;;3.50;99.90;;;;;;5054153;28;20686;-60
2021/12/10 08:17:55;;;;;;;9.38;2.88;;;3.50;99.90;;;;;;5053110;28;20216;-60
2021/12/10 08:20:26;;;;;;;5.70;2.92;;;3.60;99.90;;;;;;5056328;28;20217;-61
2021/12/10 08:22:56;;;;;;;3.40;2.50;;;3.60;99.90;;;;;;5061720;28;20235;-61
2021/12/10 08:25:26;;;;;;;7.05;3.33;;;3.50;99.90;;;;;;5052776;28;20189;-61
2021/12/10 08:27:56;;;;;;;2.78;2.25;;;3.50;99.90;;;;;;5052878;28;20236;-61
2021/12/10 08:30:27;;;;;;;5.25;2.67;;;3.50;99.90;;;;;;5071970;28;20348;-60
2021/12/10 08:32:57;;;;;;;7.20;2.63;;;3.50;99.90;;;;;;5073147;28;20227;-61
2021/12/10 08:35:29;;;;;;;5.00;2.20;;;3.60;99.90;;;;;;5071990;28;20689;-61
2021/12/10 08:38:00;;;;;;;8.30;3.30;;;3.60;99.90;;;;;;5052002;28;20223;-61
2021/12/10 08:40:33;;;;;;;8.00;2.30;;;3.60;99.90;;;;;;5053520;28;20216;-61
2021/12/10 08:43:03;;;;;;;4.40;2.90;;;3.60;99.90;;;;;;5086035;28;20228;-60
2021/12/10 08:45:34;;;;;;;4.43;2.63;;;3.60;99.90;;;;;;5053545;28;20196;-59
2021/12/10 08:48:03;;;;;;;8.43;2.50;;;3.60;99.90;;;;;;5060009;28;20239;-60
2021/12/10 08:50:32;;;;;;;4.25;2.45;;;3.60;99.90;;;;;;5057133;28;20212;-60
2021/12/10 08:53:04;;;;;;;3.10;1.77;;;3.60;99.90;;;;;;5063802;28;20220;-60
2021/12/10 08:55:35;;;;;;;5.57;1.98;;;3.60;99.90;;;;;;5053026;28;20212;-60
2021/12/10 08:58:05;;;;;;;4.93;2.33;;;3.70;99.90;;;;;;5062714;28;20713;-60
2021/12/10 09:00:35;;;;;;;10.55;3.22;;;3.70;99.90;;;;;;5061764;28;20234;-60
2021/12/10 09:03:03;;;;;;;7.90;2.22;;;3.70;99.90;;;;;;5060282;28;20315;-60
2021/12/10 09:05:32;;;;;;;7.13;2.45;;;3.70;99.90;;;;;;5053038;28;20559;-60
2021/12/10 09:08:00;;;;;;;6.70;2.20;;;3.60;99.90;;;;;;5072087;28;20293;-59
2021/12/10 09:10:33;;;;;;;7.63;2.17;;;3.60;99.90;;;;;;5072885;28;20223;-60
2021/12/10 09:13:02;;;;;;;5.40;2.40;;;3.60;99.90;;;;;;5072085;28;20224;-60
2021/12/10 09:15:32;;;;;;;4.18;2.28;;;3.60;99.90;;;;;;5072798;28;20200;-60
2021/12/10 09:18:02;;;;;;;10.60;2.50;;;3.60;99.90;;;;;;5072558;28;20223;-60
2021/12/10 09:20:35;;;;;;;7.88;2.80;;;3.60;99.90;;;;;;5073050;28;20246;-62
2021/12/10 09:23:04;;;;;;;3.17;1.70;;;3.70;99.90;;;;;;5063934;28;20633;-60
2021/12/10 09:25:33;;;;;;;5.50;2.40;;;3.70;99.90;;;;;;5052485;28;20196;-60
2021/12/10 09:28:01;;;;;;;4.60;2.20;;;3.70;99.90;;;;;;5052339;28;20224;-59
2021/12/10 09:30:34;;;;;;;13.27;2.95;;;3.70;99.90;;;;;;5052284;28;20205;-61
2021/12/10 09:33:04;;;;;;;5.03;2.50;;;3.80;99.90;;;;;;5052230;28;20224;-61
2021/12/10 09:35:35;;;;;;;4.05;2.25;;;3.80;99.90;;;;;;5068540;28;20291;-60
2021/12/10 09:38:05;;;;;;;8.48;2.97;;;3.80;99.90;;;;;;5052039;28;20228;-60
2021/12/10 09:40:39;;;;;;;11.27;3.67;;;3.90;99.90;;;;;;5051401;28;20378;-61
2021/12/10 09:43:10;;;;;;;4.75;2.50;;;3.90;99.90;;;;;;5053266;28;20215;-60
2021/12/10 09:45:40;;;;;;;7.72;2.45;;;3.90;99.90;;;;;;5072173;28;20187;-60
2021/12/10 09:48:13;;;;;;;5.10;2.50;;;3.90;99.90;;;;;;5071603;28;20227;-60
2021/12/10 09:50:44;;;;;;;5.68;2.67;;;4.00;99.90;;;;;;5072185;28;20215;-60
2021/12/10 09:53:12;;;;;;;7.15;2.78;;;4.00;99.90;;;;;;5071453;28;20215;-60
2021/12/10 09:55:47;;;;;;;4.00;2.70;;;3.90;99.90;;;;;;5072180;28;20196;-61
2021/12/10 09:58:16;;;;;;;10.73;3.65;;;3.90;99.90;;;;;;5069032;28;20253;-60
2021/12/10 10:00:47;;;;;;;5.05;3.03;;;3.90;99.90;;;;;;5052336;28;20270;-60
2021/12/10 10:03:21;;;;;;;9.70;3.53;;;3.90;99.90;;;;;;5052709;28;20216;-60
2021/12/10 10:05:49;;;;;;;7.00;2.40;;;3.90;99.90;;;;;;5056391;28;20200;-61
2021/12/10 10:08:21;;;;;;;4.72;3.85;;;3.90;99.90;;;;;;5058964;28;20231;-60
2021/12/10 10:10:52;;;;;;;4.00;2.38;;;3.90;99.90;;;;;;5052167;28;20226;-60
2021/12/10 10:13:24;;;;;;;5.18;2.78;;;3.90;99.90;;;;;;5051494;28;20219;-60
2021/12/10 10:15:56;;;;;;;4.07;2.60;;;3.90;99.90;;;;;;5053244;28;20193;-60
2021/12/10 10:18:27;;;;;;;3.47;2.70;;;4.00;99.90;;;;;;5051397;28;20228;-60
2021/12/10 10:20:59;;;;;;;8.85;2.45;;;3.90;99.90;;;;;;5052039;28;20628;-60
2021/12/10 10:23:29;;;;;;;5.38;2.60;;;3.90;99.90;;;;;;5055091;28;20211;-60
2021/12/10 10:26:02;;;;;;;8.00;3.08;;;3.90;99.90;;;;;;5072063;28;20187;-60
2021/12/10 10:28:31;;;;;;;6.88;2.95;;;4.00;99.90;;;;;;5066795;28;20307;-60
2021/12/10 10:31:04;;;;;;;5.15;3.10;;;3.90;99.90;;;;;;5051671;28;20223;-60
2021/12/10 10:33:36;;;;;;;5.32;3.05;;;4.00;99.90;;;;;;5051502;28;20220;-60
2021/12/10 10:36:11;;;;;;;5.57;2.58;;;3.90;99.90;;;;;;5057362;28;20717;-60
2021/12/10 10:38:39;;;;;;;4.30;2.97;;;3.90;99.90;;;;;;5067308;28;20219;-60
2021/12/10 10:41:10;;;;;;;5.95;2.72;;;4.00;99.90;;;;;;5068440;28;20184;-60
2021/12/10 10:43:39;;;;;;;4.00;2.60;;;4.00;99.90;;;;;;5051537;28;20286;-60
2021/12/10 10:46:08;;;;;;;3.22;2.75;;;4.00;99.90;;;;;;5051375;28;20201;-60
2021/12/10 10:48:38;;;;;;;4.35;2.80;;;4.00;99.90;;;;;;5050683;28;20710;-60
2021/12/10 10:51:09;;;;;;;7.07;3.20;;;4.00;99.90;;;;;;5051791;28;20283;-60
2021/12/10 10:53:43;;;;;;;4.45;2.28;;;4.00;99.90;;;;;;5057090;28;20207;-60
2021/12/10 10:56:14;;;;;;;5.00;3.03;;;4.00;99.90;;;;;;5070060;28;20187;-61
2021/12/10 10:58:46;;;;;;;6.38;3.70;;;4.00;99.90;;;;;;5063473;28;20216;-60
2021/12/10 11:01:23;;;;;;;6.07;2.80;;;4.00;99.90;;;;;;5051372;28;20716;-60
2021/12/10 11:04:24;;;;;;;4.57;2.20;;;4.00;99.90;;;;;;5050754;28;20902;-60
2021/12/10 11:06:55;;;;;;;5.90;2.80;;;4.00;99.90;;;;;;5050347;28;20203;-60
2021/12/10 11:09:27;;;;;;;6.65;3.85;;;4.00;99.90;;;;;;5050801;28;20224;-60
2021/12/10 11:11:58;;;;;;;6.72;3.90;;;4.00;99.90;;;;;;5065318;28;20258;-60
2021/12/10 11:14:28;;;;;;;3.33;2.47;;;4.00;99.90;;;;;;5051408;28;20247;-60
2021/12/10 11:17:06;;;;;;;4.53;2.95;;;4.00;99.90;;;;;;5066993;28;20205;-60
2021/12/10 11:19:56;;;;;;;3.95;2.20;;;4.10;99.90;;;;;;5066228;28;20212;-60
2021/12/10 11:22:24;;;;;;;3.30;2.65;;;4.10;99.90;;;;;;5064817;28;20244;-61
2021/12/10 11:24:56;;;;;;;5.15;2.67;;;4.10;99.90;;;;;;5059692;28;20618;-60
2021/12/10 11:27:28;;;;;;;4.45;3.03;;;4.20;99.90;;;;;;5070559;28;20289;-60
2021/12/10 11:30:10;;;;;;;3.53;2.40;;;4.20;99.90;;;;;;5070765;28;20281;-60
2021/12/10 11:32:40;;;;;;;4.10;2.80;;;4.20;99.90;;;;;;5070400;28;20223;-60
2021/12/10 11:35:14;;;;;;;6.60;2.53;;;4.20;99.90;;;;;;5071118;28;20195;-60
2021/12/10 11:37:50;;;;;;;10.32;3.60;;;4.20;99.90;;;;;;5069458;28;20628;-60
2021/12/10 11:40:40;;;;;;;2.70;2.30;;;4.20;99.90;;;;;;5070327;28;20204;-60
2021/12/10 11:43:33;;;;;;;4.68;2.50;;;4.20;99.90;;;;;;5051950;28;20228;-60
2021/12/10 11:46:27;;;;;;;2.72;2.53;;;4.20;99.90;;;;;;5070838;28;20192;-60
2021/12/10 11:49:07;;;;;;;4.40;2.65;;;4.30;99.90;;;;;;5070335;28;20235;-60
2021/12/10 11:51:41;;;;;;;6.20;2.85;;;4.30;99.90;;;;;;5070667;28;20191;-60
2021/12/10 11:54:22;;;;;;;7.65;2.60;;;4.30;99.90;;;;;;5074223;28;20253;-59
2021/12/10 11:56:55;;;;;;;11.15;2.30;;;4.30;99.90;;;;;;5066934;28;20279;-60
2021/12/10 11:59:27;;;;;;;4.47;2.45;;;4.30;99.90;;;;;;5069428;28;20734;-60
2021/12/10 12:01:58;;;;;;;2.83;1.60;;;4.30;99.90;;;;;;5074578;28;20209;-60
2021/12/10 12:04:31;;;;;;;3.28;1.58;;;4.20;99.90;;;;;;5064298;28;20220;-60
2021/12/10 12:07:33;;;;;;;2.45;2.25;;;4.30;99.90;;;;;;5066883;28;20245;-60
2021/12/10 12:10:11;;;;;;;4.25;3.22;;;4.20;99.90;;;;;;5023406;28;20217;-60
2021/12/10 12:12:41;;;;;;;3.47;2.47;;;4.20;99.90;;;;;;5054066;28;20277;-61
2021/12/10 12:15:17;;;;;;;4.22;1.65;;;4.20;99.90;;;;;;5073304;28;20184;-60
2021/12/10 12:17:47;;;;;;;3.35;1.45;;;4.10;99.90;;;;;;5073596;28;20227;-61
2021/12/10 12:20:33;;;;;;;1.52;1.33;;;4.10;99.90;;;;;;5054209;28;20647;-60
2021/12/10 12:25:58;;;;;;;3.17;0.95;;;4.10;99.90;;;;;;5053934;28;20264;-60
2021/12/10 12:28:42;;;;;;;2.72;1.23;;;4.10;99.90;;;;;;5059346;28;20219;-60
2021/12/10 12:31:33;;;;;;;1.40;1.30;;;4.10;99.90;;;;;;5073774;28;20191;-60
2021/12/10 12:34:06;;;;;;;3.10;1.40;;;4.10;99.90;;;;;;5070368;28;20246;-60
2021/12/10 12:36:38;;;;;;;2.08;1.48;;;4.10;99.90;;;;;;5073756;28;20654;-60
2021/12/10 12:39:12;;;;;;;2.17;0.70;;;4.10;99.90;;;;;;5057526;28;20315;-60
2021/12/10 12:41:43;;;;;;;1.50;1.20;;;4.10;99.90;;;;;;5071387;28;20308;-60
2021/12/10 12:44:24;;;;;;;2.08;0.93;;;4.00;99.90;;;;;;5057217;28;20216;-60
2021/12/10 12:47:14;;;;;;;1.00;0.90;;;4.00;99.90;;;;;;5055427;28;20188;-60
2021/12/10 12:50:04;;;;;;;3.10;1.08;;;4.10;99.90;;;;;;5056897;28;20310;-61
2021/12/10 12:52:39;;;;;;;1.58;1.10;;;4.10;99.90;;;;;;5060164;28;20299;-61
2021/12/10 12:55:25;;;;;;;3.28;1.33;;;4.10;99.90;;;;;;5057766;28;20192;-60
2021/12/10 12:58:00;;;;;;;3.30;1.35;;;4.10;99.90;;;;;;5052823;28;20227;-60
2021/12/10 13:00:54;;;;;;;2.25;1.15;;;4.10;99.90;;;;;;5062142;28;20210;-60
2021/12/10 13:03:31;;;;;;;1.60;0.93;;;4.20;99.90;;;;;;5053554;28;20239;-61
2021/12/10 13:06:23;;;;;;;2.95;1.05;;;4.20;99.90;;;;;;5057844;28;20189;-60
2021/12/10 13:09:05;;;;;;;1.75;1.45;;;4.20;99.90;;;;;;5059829;28;20246;-60
2021/12/10 13:11:49;;;;;;;2.33;1.30;;;4.30;99.90;;;;;;5062383;28;20241;-61
2021/12/10 13:14:20;;;;;;;1.35;1.10;;;4.30;99.90;;;;;;5061398;28;20224;-60
2021/12/10 13:16:52;;;;;;;3.20;1.15;;;4.30;99.90;;;;;;5059957;28;20203;-61
2021/12/10 13:19:22;;;;;;;5.57;1.45;;;4.30;99.90;;;;;;5052028;28;20240;-60
2021/12/10 13:21:59;;;;;;;6.88;2.60;;;4.30;99.90;;;;;;5067177;28;20594;-60
2021/12/10 13:24:28;;;;;;;3.70;2.53;;;4.30;99.90;;;;;;5059770;28;20222;-61
2021/12/10 13:26:59;;;;;;;3.55;2.70;;;4.20;99.90;;;;;;5059795;28;20189;-61
2021/12/10 13:29:29;;;;;;;7.47;3.10;;;4.20;99.90;;;;;;5053037;28;20226;-60